createdAt,value
2018-03-29T00:00:57.698Z,3.62
2018-03-29T00:01:57.724Z,3.57
2018-03-29T00:02:57.819Z,3.38
2018-03-29T00:03:57.741Z,3.3
2018-03-29T00:04:57.688Z,3.42
2018-03-29T00:05:57.715Z,3.49
2018-03-29T00:06:57.708Z,3.48
2018-03-29T00:07:57.706Z,3.49
2018-03-29T00:08:57.719Z,3.49
2018-03-29T00:09:57.775Z,3.56
2018-03-29T00:10:57.706Z,3.61
2018-03-29T00:11:57.710Z,3.59
2018-03-29T00:12:57.729Z,3.61
2018-03-29T00:13:57.751Z,3.63
2018-03-29T00:14:57.693Z,3.58
2018-03-29T00:15:57.715Z,3.59
2018-03-29T00:16:57.719Z,3.61
2018-03-29T00:17:57.711Z,3.61
2018-03-29T00:18:57.702Z,3.52
2018-03-29T00:19:57.752Z,3.49
2018-03-29T00:20:57.706Z,3.54
2018-03-29T00:21:57.723Z,3.52
2018-03-29T00:22:57.714Z,3.5
2018-03-29T00:23:57.705Z,3.44
2018-03-29T00:24:57.707Z,3.52
2018-03-29T00:25:57.723Z,3.4
2018-03-29T00:26:57.708Z,3.45
2018-03-29T00:27:57.698Z,3.37
2018-03-29T00:28:57.707Z,3.51
2018-03-29T00:29:57.713Z,3.45
2018-03-29T00:30:57.728Z,3.51
2018-03-29T00:31:57.709Z,3.52
2018-03-29T00:32:57.708Z,3.36
2018-03-29T00:33:57.777Z,3.25
2018-03-29T00:34:57.710Z,3.15
2018-03-29T00:35:57.895Z,3.19
2018-03-29T00:36:57.740Z,3.02
2018-03-29T00:37:57.704Z,2.87
2018-03-29T00:38:57.708Z,2.77
2018-03-29T00:39:57.727Z,2.62
2018-03-29T00:40:57.724Z,2.72
2018-03-29T00:41:57.701Z,2.56
2018-03-29T00:42:57.708Z,2.48
2018-03-29T00:43:57.730Z,2.5
2018-03-29T00:44:57.717Z,2.49
2018-03-29T00:45:57.709Z,2.46
2018-03-29T00:46:57.718Z,2.56
2018-03-29T00:47:57.718Z,2.46
2018-03-29T00:48:57.713Z,2.42
2018-03-29T00:49:57.723Z,2.41
2018-03-29T00:50:57.720Z,2.53
2018-03-29T00:51:57.699Z,2.39
2018-03-29T00:52:57.703Z,2.05
2018-03-29T00:53:57.748Z,1.94
2018-03-29T00:54:57.716Z,2.07
2018-03-29T00:55:57.699Z,2.01
2018-03-29T00:56:57.706Z,2.07
2018-03-29T00:57:57.715Z,2.09
2018-03-29T00:58:57.704Z,2.01
2018-03-29T00:59:57.746Z,2
2018-03-29T01:00:57.737Z,1.62
2018-03-29T01:01:57.710Z,1.75
2018-03-29T01:02:57.760Z,1.84
2018-03-29T01:03:58.181Z,1.75
2018-03-29T01:04:57.825Z,1.68
2018-03-29T01:05:57.712Z,1.53
2018-03-29T01:06:57.723Z,1.57
2018-03-29T01:07:57.721Z,1.4
2018-03-29T01:08:57.744Z,1.19
2018-03-29T01:09:57.709Z,1.36
2018-03-29T01:10:57.708Z,1.26
2018-03-29T01:11:57.737Z,1.31
2018-03-29T01:12:57.735Z,1.31
2018-03-29T01:13:57.717Z,1.16
2018-03-29T01:14:57.734Z,1.24
2018-03-29T01:15:57.727Z,1.29
2018-03-29T01:16:57.724Z,1.37
2018-03-29T01:17:57.758Z,1.14
2018-03-29T01:18:57.752Z,1.16
2018-03-29T01:19:57.768Z,1.16
2018-03-29T01:20:57.738Z,1.21
2018-03-29T01:21:57.719Z,1.12
2018-03-29T01:22:57.721Z,1.21
2018-03-29T01:23:57.733Z,1.22
2018-03-29T01:24:57.716Z,1.13
2018-03-29T01:25:57.725Z,1.16
2018-03-29T01:26:57.735Z,1.24
2018-03-29T01:27:57.726Z,1.17
2018-03-29T01:28:57.747Z,1.1
2018-03-29T01:29:57.779Z,1.2
2018-03-29T01:30:57.748Z,1.28
2018-03-29T01:31:57.730Z,1.27
2018-03-29T01:32:57.733Z,1.21
2018-03-29T01:33:57.715Z,1.2
2018-03-29T01:34:57.764Z,1.31
2018-03-29T01:35:57.793Z,1.17
2018-03-29T01:36:57.741Z,1.28
2018-03-29T01:37:57.736Z,1.22
2018-03-29T01:38:57.742Z,1.3
2018-03-29T01:39:57.764Z,1.35
2018-03-29T01:40:57.738Z,1.21
2018-03-29T01:41:57.745Z,1.32
2018-03-29T01:42:57.754Z,1.35
2018-03-29T01:43:58.015Z,1.27
2018-03-29T01:44:57.735Z,1.35
2018-03-29T01:45:57.765Z,1.21
2018-03-29T01:46:57.731Z,1.29
2018-03-29T01:47:57.738Z,1.26
2018-03-29T01:48:57.748Z,1.25
2018-03-29T01:49:57.764Z,1.21
2018-03-29T01:50:57.724Z,1.34
2018-03-29T01:51:57.731Z,1.37
2018-03-29T01:52:57.759Z,1.31
2018-03-29T01:53:58.027Z,1.33
2018-03-29T01:54:57.732Z,1.36
2018-03-29T01:55:57.741Z,1.3
2018-03-29T01:56:57.746Z,1.36
2018-03-29T01:57:57.737Z,1.39
2018-03-29T01:58:58.089Z,1.38
2018-03-29T01:59:57.820Z,1.39
2018-03-29T02:00:57.955Z,1.51
2018-03-29T02:01:57.738Z,1.36
2018-03-29T02:02:57.740Z,1.35
2018-03-29T02:03:57.813Z,1.31
2018-03-29T02:04:57.726Z,1.27
2018-03-29T02:05:57.767Z,1.33
2018-03-29T02:06:57.833Z,1.32
2018-03-29T02:07:57.755Z,1.45
2018-03-29T02:08:57.732Z,1.53
2018-03-29T02:09:57.748Z,1.57
2018-03-29T02:10:57.733Z,1.54
2018-03-29T02:11:57.735Z,1.52
2018-03-29T02:12:57.769Z,1.45
2018-03-29T02:13:57.739Z,1.55
2018-03-29T02:14:57.744Z,1.53
2018-03-29T02:15:57.736Z,1.45
2018-03-29T02:16:57.752Z,1.55
2018-03-29T02:17:57.729Z,1.53
2018-03-29T02:18:57.779Z,1.53
2018-03-29T02:19:57.734Z,1.48
2018-03-29T02:20:57.773Z,1.48
2018-03-29T02:21:57.739Z,1.59
2018-03-29T02:22:57.746Z,1.62
2018-03-29T02:23:57.734Z,1.65
2018-03-29T02:24:57.759Z,1.63
2018-03-29T02:25:57.749Z,1.67
2018-03-29T02:26:57.747Z,1.63
2018-03-29T02:27:57.747Z,1.5
2018-03-29T02:28:57.733Z,1.59
2018-03-29T02:29:57.744Z,1.54
2018-03-29T02:30:57.785Z,1.64
2018-03-29T02:31:57.765Z,1.75
2018-03-29T02:32:57.773Z,1.88
2018-03-29T02:33:57.742Z,1.65
2018-03-29T02:34:57.781Z,1.71
2018-03-29T02:35:57.830Z,1.73
2018-03-29T02:36:57.763Z,1.73
2018-03-29T02:37:57.843Z,1.64
2018-03-29T02:38:57.758Z,1.64
2018-03-29T02:39:57.794Z,1.67
2018-03-29T02:40:57.757Z,1.76
2018-03-29T02:41:57.779Z,1.81
2018-03-29T02:42:57.762Z,1.74
2018-03-29T02:43:57.748Z,1.75
2018-03-29T02:44:57.791Z,1.77
2018-03-29T02:45:57.772Z,1.76
2018-03-29T02:46:57.760Z,1.74
2018-03-29T02:47:57.782Z,1.84
2018-03-29T02:48:57.779Z,1.76
2018-03-29T02:49:57.801Z,1.69
2018-03-29T02:50:57.766Z,1.75
2018-03-29T02:51:57.774Z,1.81
2018-03-29T02:52:57.769Z,1.82
2018-03-29T02:53:57.762Z,1.75
2018-03-29T02:54:57.778Z,1.82
2018-03-29T02:55:57.783Z,1.92
2018-03-29T02:56:57.757Z,1.86
2018-03-29T02:57:57.738Z,1.89
2018-03-29T02:58:57.788Z,1.84
2018-03-29T02:59:57.800Z,1.76
2018-03-29T03:00:57.782Z,1.68
2018-03-29T03:01:57.765Z,1.67
2018-03-29T03:02:57.805Z,1.62
2018-03-29T03:03:57.781Z,1.61
2018-03-29T03:04:57.756Z,1.63
2018-03-29T03:05:57.780Z,1.64
2018-03-29T03:06:57.773Z,1.66
2018-03-29T03:07:57.767Z,1.79
2018-03-29T03:08:57.837Z,1.73
2018-03-29T03:09:57.805Z,1.85
2018-03-29T03:10:57.760Z,1.87
2018-03-29T03:11:58.416Z,1.77
2018-03-29T03:12:57.765Z,1.84
2018-03-29T03:13:57.755Z,1.88
2018-03-29T03:14:57.749Z,1.88
2018-03-29T03:15:57.757Z,1.83
2018-03-29T03:16:57.762Z,1.94
2018-03-29T03:17:57.763Z,1.92
2018-03-29T03:18:57.756Z,1.96
2018-03-29T03:19:57.812Z,1.92
2018-03-29T03:20:57.771Z,1.98
2018-03-29T03:21:57.763Z,2
2018-03-29T03:22:57.768Z,1.99
2018-03-29T03:23:57.770Z,2.08
2018-03-29T03:24:57.793Z,2.11
2018-03-29T03:25:57.756Z,2.06
2018-03-29T03:26:57.778Z,2.03
2018-03-29T03:27:57.772Z,2.14
2018-03-29T03:28:57.770Z,2.13
2018-03-29T03:29:57.858Z,2.32
2018-03-29T03:30:57.800Z,2.18
2018-03-29T03:31:57.767Z,2.23
2018-03-29T03:32:57.772Z,2.25
2018-03-29T03:33:57.771Z,2.25
2018-03-29T03:34:57.764Z,2.27
2018-03-29T03:35:57.959Z,2.25
2018-03-29T03:36:57.759Z,2.3
2018-03-29T03:37:57.768Z,2.35
2018-03-29T03:38:57.821Z,2.33
2018-03-29T03:39:57.822Z,2.33
2018-03-29T03:40:57.832Z,2.35
2018-03-29T03:41:57.762Z,2.36
2018-03-29T03:42:57.751Z,2.43
2018-03-29T03:43:57.776Z,2.44
2018-03-29T03:44:57.759Z,2.41
2018-03-29T03:45:57.782Z,2.54
2018-03-29T03:46:57.787Z,2.53
2018-03-29T03:47:57.782Z,2.51
2018-03-29T03:48:57.809Z,2.52
2018-03-29T03:49:57.777Z,2.51
2018-03-29T03:50:57.762Z,2.56
2018-03-29T03:51:57.766Z,2.5
2018-03-29T03:52:57.763Z,2.49
2018-03-29T03:53:57.764Z,2.48
2018-03-29T03:54:57.761Z,2.38
2018-03-29T03:55:57.784Z,2.5
2018-03-29T03:56:57.761Z,2.46
2018-03-29T03:57:57.766Z,2.52
2018-03-29T03:58:57.766Z,2.56
2018-03-29T03:59:57.767Z,2.56
2018-03-29T04:00:57.782Z,2.5
2018-03-29T04:01:57.777Z,2.5
2018-03-29T04:02:57.778Z,2.62
2018-03-29T04:03:57.772Z,2.55
2018-03-29T04:04:57.789Z,2.47
2018-03-29T04:05:57.776Z,2.47
2018-03-29T04:06:57.780Z,2.51
2018-03-29T04:07:57.774Z,2.51
2018-03-29T04:08:57.770Z,2.48
2018-03-29T04:09:57.776Z,2.47
2018-03-29T04:10:57.861Z,2.58
2018-03-29T04:11:58.153Z,2.51
2018-03-29T04:12:57.774Z,2.57
2018-03-29T04:13:57.785Z,2.45
2018-03-29T04:14:57.784Z,2.54
2018-03-29T04:15:57.785Z,2.54
2018-03-29T04:16:57.928Z,2.57
2018-03-29T04:17:57.769Z,2.57
2018-03-29T04:18:57.784Z,2.62
2018-03-29T04:19:58.042Z,2.53
2018-03-29T04:20:57.782Z,2.61
2018-03-29T04:21:57.802Z,2.58
2018-03-29T04:22:57.777Z,2.61
2018-03-29T04:23:57.791Z,2.62
2018-03-29T04:24:57.803Z,2.68
2018-03-29T04:25:57.799Z,2.67
2018-03-29T04:26:57.784Z,2.73
2018-03-29T04:27:57.822Z,2.64
2018-03-29T04:28:57.801Z,2.67
2018-03-29T04:29:57.809Z,2.69
2018-03-29T04:30:57.796Z,2.7
2018-03-29T04:31:57.789Z,2.82
2018-03-29T04:32:57.805Z,2.68
2018-03-29T04:33:57.791Z,2.7
2018-03-29T04:34:57.790Z,2.69
2018-03-29T04:35:57.802Z,2.68
2018-03-29T04:36:57.804Z,2.68
2018-03-29T04:37:57.779Z,2.66
2018-03-29T04:38:57.799Z,2.65
2018-03-29T04:39:57.844Z,2.68
2018-03-29T04:40:57.785Z,2.68
2018-03-29T04:41:57.864Z,2.71
2018-03-29T04:42:57.814Z,2.69
2018-03-29T04:43:57.798Z,2.64
2018-03-29T04:44:57.787Z,2.66
2018-03-29T04:45:57.792Z,2.67
2018-03-29T04:46:57.808Z,2.66
2018-03-29T04:47:57.793Z,2.61
2018-03-29T04:48:57.806Z,2.64
2018-03-29T04:49:57.819Z,2.69
2018-03-29T04:50:57.806Z,2.67
2018-03-29T04:51:57.821Z,2.63
2018-03-29T04:52:57.795Z,2.63
2018-03-29T04:53:57.799Z,2.67
2018-03-29T04:54:57.805Z,2.8
2018-03-29T04:55:57.791Z,2.77
2018-03-29T04:56:57.823Z,2.69
2018-03-29T04:57:57.827Z,2.7
2018-03-29T04:58:57.817Z,2.69
2018-03-29T04:59:57.851Z,2.75
2018-03-29T05:00:57.803Z,2.72
2018-03-29T05:01:57.797Z,2.7
2018-03-29T05:02:57.875Z,2.71
2018-03-29T05:03:57.803Z,2.78
2018-03-29T05:04:57.808Z,2.7
2018-03-29T05:05:57.814Z,2.66
2018-03-29T05:06:57.804Z,2.63
2018-03-29T05:07:57.885Z,2.58
2018-03-29T05:08:57.800Z,2.67
2018-03-29T05:09:57.820Z,2.61
2018-03-29T05:10:57.801Z,2.62
2018-03-29T05:11:57.823Z,2.57
2018-03-29T05:12:57.899Z,2.59
2018-03-29T05:13:57.822Z,2.67
2018-03-29T05:14:57.811Z,2.7
2018-03-29T05:15:57.812Z,2.62
2018-03-29T05:16:57.814Z,2.67
2018-03-29T05:17:57.813Z,2.61
2018-03-29T05:18:57.812Z,2.6
2018-03-29T05:19:57.811Z,2.55
2018-03-29T05:20:58.610Z,2.59
2018-03-29T05:21:57.820Z,2.59
2018-03-29T05:22:57.810Z,2.58
2018-03-29T05:23:57.803Z,2.62
2018-03-29T05:24:57.850Z,2.62
2018-03-29T05:25:57.836Z,2.66
2018-03-29T05:26:57.809Z,2.72
2018-03-29T05:27:57.833Z,2.71
2018-03-29T05:28:57.802Z,2.67
2018-03-29T05:29:57.816Z,2.66
2018-03-29T05:30:57.821Z,2.65
2018-03-29T05:31:58.198Z,2.69
2018-03-29T05:32:57.826Z,2.7
2018-03-29T05:33:57.811Z,2.75
2018-03-29T05:34:57.837Z,2.64
2018-03-29T05:35:57.816Z,2.63
2018-03-29T05:36:57.835Z,2.61
2018-03-29T05:37:57.842Z,2.65
2018-03-29T05:38:57.815Z,2.71
2018-03-29T05:39:57.812Z,2.73
2018-03-29T05:40:57.810Z,2.61
2018-03-29T05:41:57.839Z,2.58
2018-03-29T05:42:57.810Z,2.68
2018-03-29T05:43:57.873Z,2.6
2018-03-29T05:44:57.845Z,2.64
2018-03-29T05:45:57.843Z,2.66
2018-03-29T05:46:58.003Z,2.72
2018-03-29T05:47:57.829Z,2.74
2018-03-29T05:48:57.837Z,2.66
2018-03-29T05:49:57.825Z,2.64
2018-03-29T05:50:57.821Z,2.66
2018-03-29T05:51:58.040Z,2.67
2018-03-29T05:52:57.840Z,2.63
2018-03-29T05:53:58.061Z,2.54
2018-03-29T05:54:57.808Z,2.55
2018-03-29T05:55:57.829Z,2.57
2018-03-29T05:56:57.857Z,2.51
2018-03-29T05:57:57.828Z,2.53
2018-03-29T05:58:57.857Z,2.56
2018-03-29T05:59:57.878Z,2.56
2018-03-29T06:00:57.826Z,2.61
2018-03-29T06:01:57.902Z,2.58
2018-03-29T06:02:57.931Z,2.62
2018-03-29T06:03:57.830Z,2.59
2018-03-29T06:04:57.865Z,2.62
2018-03-29T06:05:57.816Z,2.64
2018-03-29T06:06:57.871Z,2.67
2018-03-29T06:07:57.833Z,2.62
2018-03-29T06:08:57.834Z,2.59
2018-03-29T06:09:57.875Z,2.59
2018-03-29T06:10:58.010Z,2.61
2018-03-29T06:11:57.994Z,2.62
2018-03-29T06:12:57.835Z,2.61
2018-03-29T06:13:57.817Z,2.63
2018-03-29T06:14:57.885Z,2.64
2018-03-29T06:15:57.879Z,2.68
2018-03-29T06:16:57.868Z,2.7
2018-03-29T06:17:57.819Z,2.71
2018-03-29T06:18:57.881Z,2.69
2018-03-29T06:19:57.997Z,2.74
2018-03-29T06:20:57.823Z,2.77
2018-03-29T06:21:57.845Z,2.75
2018-03-29T06:22:57.862Z,2.74
2018-03-29T06:23:58.872Z,2.71
2018-03-29T06:24:57.829Z,2.7
2018-03-29T06:25:57.833Z,2.69
2018-03-29T06:26:58.585Z,2.68
2018-03-29T06:27:57.974Z,2.68
2018-03-29T06:28:57.847Z,2.66
2018-03-29T06:29:57.926Z,2.71
2018-03-29T06:30:57.836Z,2.64
2018-03-29T06:31:57.865Z,2.6
2018-03-29T06:32:58.691Z,2.62
2018-03-29T06:33:57.861Z,2.74
2018-03-29T06:34:57.824Z,2.77
2018-03-29T06:35:57.822Z,2.82
2018-03-29T06:36:57.823Z,2.73
2018-03-29T06:37:57.877Z,2.77
2018-03-29T06:38:57.834Z,2.75
2018-03-29T06:39:57.851Z,2.75
2018-03-29T06:40:57.849Z,2.78
2018-03-29T06:41:57.885Z,2.72
2018-03-29T06:42:59.076Z,2.7
2018-03-29T06:43:57.921Z,2.67
2018-03-29T06:44:57.864Z,2.64
2018-03-29T06:45:57.879Z,2.69
2018-03-29T06:46:58.123Z,2.74
2018-03-29T06:47:57.857Z,2.81
2018-03-29T06:48:57.839Z,2.77
2018-03-29T06:49:57.837Z,2.69
2018-03-29T06:50:57.832Z,2.75
2018-03-29T06:51:57.836Z,2.76
2018-03-29T06:52:58.146Z,2.74
2018-03-29T06:53:57.836Z,2.79
2018-03-29T06:54:57.895Z,2.81
2018-03-29T06:55:57.817Z,2.76
2018-03-29T06:56:57.832Z,2.86
2018-03-29T06:57:57.848Z,2.87
2018-03-29T06:58:57.828Z,2.86
2018-03-29T06:59:57.823Z,2.84
2018-03-29T07:00:58.233Z,2.87
2018-03-29T07:01:57.829Z,2.85
2018-03-29T07:02:57.864Z,2.84
2018-03-29T07:03:57.847Z,2.67
2018-03-29T07:04:57.861Z,2.69
2018-03-29T07:05:57.855Z,2.66
2018-03-29T07:06:57.855Z,2.72
2018-03-29T07:07:57.838Z,2.65
2018-03-29T07:08:57.843Z,2.77
2018-03-29T07:09:57.880Z,2.69
2018-03-29T07:10:57.855Z,2.69
2018-03-29T07:11:57.912Z,2.55
2018-03-29T07:12:57.827Z,2.62
2018-03-29T07:13:57.843Z,2.66
2018-03-29T07:14:58.157Z,2.66
2018-03-29T07:15:57.851Z,2.72
2018-03-29T07:16:57.934Z,2.68
2018-03-29T07:17:57.859Z,2.59
2018-03-29T07:18:57.868Z,2.64
2018-03-29T07:19:57.850Z,2.67
2018-03-29T07:20:57.844Z,2.74
2018-03-29T07:21:57.844Z,2.64
2018-03-29T07:22:57.870Z,2.7
2018-03-29T07:23:57.856Z,2.71
2018-03-29T07:24:57.841Z,2.73
2018-03-29T07:25:57.863Z,2.67
2018-03-29T07:26:57.864Z,2.76
2018-03-29T07:27:57.843Z,2.61
2018-03-29T07:28:57.852Z,2.66
2018-03-29T07:29:57.870Z,2.68
2018-03-29T07:30:57.865Z,2.75
2018-03-29T07:31:57.864Z,2.69
2018-03-29T07:32:57.873Z,2.68
2018-03-29T07:33:58.482Z,2.56
2018-03-29T07:34:58.262Z,2.59
2018-03-29T07:35:57.866Z,2.66
2018-03-29T07:36:57.940Z,2.69
2018-03-29T07:37:57.865Z,2.8
2018-03-29T07:38:57.849Z,2.76
2018-03-29T07:39:57.899Z,2.61
2018-03-29T07:40:57.887Z,2.66
2018-03-29T07:41:57.866Z,2.6
2018-03-29T07:42:57.848Z,2.55
2018-03-29T07:43:57.868Z,2.6
2018-03-29T07:44:57.849Z,2.57
2018-03-29T07:45:57.869Z,2.47
2018-03-29T07:46:57.858Z,2.53
2018-03-29T07:47:57.914Z,2.52
2018-03-29T07:48:58.122Z,2.51
2018-03-29T07:49:57.903Z,2.29
2018-03-29T07:50:57.860Z,2.45
2018-03-29T07:51:57.861Z,2.48
2018-03-29T07:52:57.849Z,2.56
2018-03-29T07:53:57.892Z,2.5
2018-03-29T07:54:57.870Z,2.45
2018-03-29T07:55:57.848Z,2.6
2018-03-29T07:56:57.872Z,2.35
2018-03-29T07:57:58.126Z,2.57
2018-03-29T07:58:57.903Z,2.48
2018-03-29T07:59:57.867Z,2.57
2018-03-29T08:00:57.862Z,2.55
2018-03-29T08:01:57.842Z,2.67
2018-03-29T08:02:57.866Z,2.44
2018-03-29T08:03:57.871Z,2.13
2018-03-29T08:04:57.846Z,2.06
2018-03-29T08:05:57.855Z,2.28
2018-03-29T08:06:57.860Z,2.29
2018-03-29T08:07:57.860Z,2.25
2018-03-29T08:08:57.851Z,2.19
2018-03-29T08:09:57.882Z,2.17
2018-03-29T08:10:57.865Z,2.25
2018-03-29T08:11:57.855Z,2.33
2018-03-29T08:12:57.853Z,2.16
2018-03-29T08:13:57.877Z,2.14
2018-03-29T08:14:57.930Z,2.03
2018-03-29T08:15:57.844Z,2.07
2018-03-29T08:16:57.850Z,2.07
2018-03-29T08:17:57.850Z,2.16
2018-03-29T08:18:57.924Z,2.27
2018-03-29T08:19:57.849Z,2.27
2018-03-29T08:20:57.954Z,2.23
2018-03-29T08:21:57.870Z,2.26
2018-03-29T08:22:57.879Z,2.27
2018-03-29T08:23:57.880Z,2.29
2018-03-29T08:24:57.875Z,2.34
2018-03-29T08:25:57.857Z,2.41
2018-03-29T08:26:57.875Z,2.37
2018-03-29T08:27:57.885Z,2.35
2018-03-29T08:28:57.951Z,2.23
2018-03-29T08:29:57.869Z,2.19
2018-03-29T08:30:57.872Z,2.13
2018-03-29T08:31:57.891Z,2.12
2018-03-29T08:32:57.869Z,2.21
2018-03-29T08:33:57.894Z,2.25
2018-03-29T08:34:57.863Z,2.31
2018-03-29T08:35:57.856Z,2.26
2018-03-29T08:36:57.864Z,2.23
2018-03-29T08:37:57.857Z,2.27
2018-03-29T08:38:57.875Z,2.19
2018-03-29T08:39:57.931Z,2.26
2018-03-29T08:40:57.907Z,2.33
2018-03-29T08:41:57.889Z,2.33
2018-03-29T08:42:57.861Z,2.17
2018-03-29T08:43:57.867Z,2.29
2018-03-29T08:44:57.867Z,2.29
2018-03-29T08:45:58.050Z,2.24
2018-03-29T08:46:57.973Z,2.24
2018-03-29T08:47:57.855Z,2.22
2018-03-29T08:48:57.948Z,2.27
2018-03-29T08:49:57.966Z,2.28
2018-03-29T08:50:57.863Z,2.19
2018-03-29T08:51:57.855Z,2.04
2018-03-29T08:52:57.874Z,2.12
2018-03-29T08:53:57.911Z,2.16
2018-03-29T08:54:57.871Z,2.1
2018-03-29T08:55:57.873Z,2.13
2018-03-29T08:56:57.866Z,2.26
2018-03-29T08:57:57.884Z,2.29
2018-03-29T08:58:57.874Z,2.25
2018-03-29T08:59:57.882Z,2.3
2018-03-29T09:00:57.887Z,2.32
2018-03-29T09:01:57.891Z,2.1
2018-03-29T09:02:57.907Z,2.12
2018-03-29T09:03:57.889Z,2.21
2018-03-29T09:04:57.909Z,2.19
2018-03-29T09:05:57.867Z,2.18
2018-03-29T09:06:57.879Z,2.17
2018-03-29T09:07:57.874Z,2.17
2018-03-29T09:08:57.871Z,2.25
2018-03-29T09:09:57.952Z,2.32
2018-03-29T09:10:57.884Z,2.15
2018-03-29T09:11:57.890Z,2.22
2018-03-29T09:12:57.870Z,2.15
2018-03-29T09:13:57.886Z,2.09
2018-03-29T09:14:57.884Z,2.23
2018-03-29T09:15:57.894Z,2.33
2018-03-29T09:16:57.995Z,2.43
2018-03-29T09:17:57.952Z,2.33
2018-03-29T09:18:58.153Z,2.32
2018-03-29T09:19:57.868Z,2.48
2018-03-29T09:20:57.966Z,2.37
2018-03-29T09:21:57.867Z,2.57
2018-03-29T09:22:57.873Z,2.36
2018-03-29T09:23:57.895Z,2.34
2018-03-29T09:24:57.927Z,2.33
2018-03-29T09:25:57.895Z,2.3
2018-03-29T09:26:57.884Z,2.39
2018-03-29T09:27:57.892Z,2.45
2018-03-29T09:28:57.877Z,2.17
2018-03-29T09:29:57.976Z,2.14
2018-03-29T09:30:57.907Z,2.33
2018-03-29T09:31:57.898Z,2.47
2018-03-29T09:32:57.881Z,2.04
2018-03-29T09:33:57.909Z,2.25
2018-03-29T09:34:57.895Z,1.99
2018-03-29T09:35:57.880Z,2.09
2018-03-29T09:36:57.888Z,2.26
2018-03-29T09:37:57.917Z,2.29
2018-03-29T09:38:58.390Z,2.25
2018-03-29T09:39:57.925Z,2.1
2018-03-29T09:40:57.896Z,2.31
2018-03-29T09:41:57.904Z,2.44
2018-03-29T09:42:57.874Z,2.59
2018-03-29T09:43:57.879Z,2.03
2018-03-29T09:44:57.900Z,2.08
2018-03-29T09:45:57.887Z,1.97
2018-03-29T09:46:57.887Z,1.86
2018-03-29T09:47:57.916Z,2.1
2018-03-29T09:48:57.887Z,2.35
2018-03-29T09:49:57.883Z,2.47
2018-03-29T09:50:57.886Z,2.39
2018-03-29T09:51:58.030Z,2.13
2018-03-29T09:52:57.918Z,2.19
2018-03-29T09:53:57.896Z,2.13
2018-03-29T09:54:57.907Z,2.29
2018-03-29T09:55:57.884Z,2.35
2018-03-29T09:56:57.921Z,2.24
2018-03-29T09:57:57.899Z,1.95
2018-03-29T09:58:57.902Z,2.01
2018-03-29T09:59:57.900Z,1.26
2018-03-29T10:00:57.884Z,1.04
2018-03-29T10:01:57.933Z,1.12
2018-03-29T10:02:57.900Z,1.28
2018-03-29T10:03:57.929Z,1.79
2018-03-29T10:04:57.889Z,1.57
2018-03-29T10:05:57.886Z,1.58
2018-03-29T10:06:57.893Z,1.61
2018-03-29T10:07:57.892Z,1.68
2018-03-29T10:08:57.917Z,2.14
2018-03-29T10:09:57.899Z,2.04
2018-03-29T10:10:57.896Z,2.02
2018-03-29T10:11:57.897Z,1.84
2018-03-29T10:12:57.898Z,1.99
2018-03-29T10:13:57.901Z,1.5
2018-03-29T10:14:57.894Z,1.26
2018-03-29T10:15:58.301Z,1.49
2018-03-29T10:16:57.914Z,1.65
2018-03-29T10:17:57.896Z,1.56
2018-03-29T10:18:57.903Z,1.73
2018-03-29T10:19:57.923Z,1.64
2018-03-29T10:20:57.943Z,1.86
2018-03-29T10:21:57.920Z,2.04
2018-03-29T10:22:57.976Z,1.83
2018-03-29T10:23:57.926Z,1.97
2018-03-29T10:24:57.910Z,1.56
2018-03-29T10:25:57.925Z,1.79
2018-03-29T10:26:57.894Z,1.79
2018-03-29T10:27:57.907Z,1.93
2018-03-29T10:28:57.914Z,1.72
2018-03-29T10:29:57.923Z,1.94
2018-03-29T10:30:57.926Z,2.09
2018-03-29T10:31:57.899Z,2.31
2018-03-29T10:32:57.928Z,2.14
2018-03-29T10:33:57.918Z,2.06
2018-03-29T10:34:57.909Z,2.2
2018-03-29T10:35:57.895Z,1.97
2018-03-29T10:36:57.898Z,2.17
2018-03-29T10:37:57.911Z,1.8
2018-03-29T10:38:57.911Z,1.52
2018-03-29T10:39:57.925Z,1.38
2018-03-29T10:40:57.902Z,1.37
2018-03-29T10:41:57.894Z,1.38
2018-03-29T10:42:57.905Z,1.77
2018-03-29T10:43:57.975Z,1.96
2018-03-29T10:44:57.914Z,1.96
2018-03-29T10:45:57.914Z,1.73
2018-03-29T10:46:57.965Z,2.02
2018-03-29T10:47:57.909Z,1.33
2018-03-29T10:48:57.913Z,1.45
2018-03-29T10:49:57.901Z,1.51
2018-03-29T10:50:57.922Z,1.72
2018-03-29T10:51:57.925Z,1.73
2018-03-29T10:52:57.945Z,1.8
2018-03-29T10:53:57.988Z,1.78
2018-03-29T10:54:57.892Z,1.64
2018-03-29T10:55:57.905Z,1.98
2018-03-29T10:56:57.901Z,1.95
2018-03-29T10:57:57.976Z,2.18
2018-03-29T10:58:57.923Z,2
2018-03-29T10:59:57.911Z,1.81
2018-03-29T11:00:57.939Z,1.48
2018-03-29T11:01:57.929Z,1.51
2018-03-29T11:02:57.913Z,1.37
2018-03-29T11:03:57.915Z,1.67
2018-03-29T11:04:57.921Z,1.84
2018-03-29T11:05:57.915Z,1.75
2018-03-29T11:06:57.941Z,1.71
2018-03-29T11:07:57.993Z,1.61
2018-03-29T11:08:57.922Z,1.7
2018-03-29T11:09:57.928Z,1.64
2018-03-29T11:10:57.909Z,1.63
2018-03-29T11:11:57.976Z,1.71
2018-03-29T11:12:58.018Z,1.42
2018-03-29T11:13:57.930Z,0.77
2018-03-29T11:14:57.960Z,0.97
2018-03-29T11:15:57.965Z,0.6
2018-03-29T11:16:58.009Z,0.79
2018-03-29T11:17:57.930Z,0.73
2018-03-29T11:18:57.990Z,0.57
2018-03-29T11:19:57.923Z,1.12
2018-03-29T11:20:57.924Z,0.9
2018-03-29T11:21:57.948Z,0.8
2018-03-29T11:22:57.922Z,0.85
2018-03-29T11:23:57.940Z,1.17
2018-03-29T11:24:58.183Z,0.79
2018-03-29T11:25:57.960Z,0.82
2018-03-29T11:26:57.940Z,0.38
2018-03-29T11:27:57.919Z,0.34
2018-03-29T11:28:57.945Z,-0.28
2018-03-29T11:29:57.984Z,-0.3
2018-03-29T11:30:57.926Z,0.27
2018-03-29T11:31:57.943Z,0.54
2018-03-29T11:32:57.990Z,0.2
2018-03-29T11:33:57.947Z,0.57
2018-03-29T11:34:57.932Z,0.48
2018-03-29T11:35:57.989Z,0.74
2018-03-29T11:36:57.983Z,0.49
2018-03-29T11:37:57.983Z,0.02
2018-03-29T11:38:57.940Z,0.2
2018-03-29T11:39:57.944Z,0.1
2018-03-29T11:40:57.944Z,0.2
2018-03-29T11:41:57.948Z,0.5
2018-03-29T11:42:57.924Z,0.54
2018-03-29T11:43:57.959Z,0.91
2018-03-29T11:44:57.933Z,0.5
2018-03-29T11:45:57.944Z,0.26
2018-03-29T11:46:57.947Z,0.14
2018-03-29T11:47:57.943Z,0.08
2018-03-29T11:48:57.934Z,0.54
2018-03-29T11:49:57.955Z,0.61
2018-03-29T11:50:57.940Z,0.5
2018-03-29T11:51:57.955Z,0.82
2018-03-29T11:52:58.131Z,1.13
2018-03-29T11:53:57.922Z,0.26
2018-03-29T11:54:57.929Z,0.56
2018-03-29T11:55:57.993Z,0.7
2018-03-29T11:56:57.959Z,0.87
2018-03-29T11:57:57.945Z,0.34
2018-03-29T11:58:57.962Z,0.83
2018-03-29T11:59:57.966Z,0.32
2018-03-29T12:00:57.948Z,0.43
2018-03-29T12:01:58.020Z,0.6
2018-03-29T12:02:57.979Z,0.16
2018-03-29T12:03:57.937Z,0.52
2018-03-29T12:04:57.973Z,0.6
2018-03-29T12:05:58.089Z,0.21
2018-03-29T12:06:57.955Z,0.3
2018-03-29T12:07:57.948Z,0.25
2018-03-29T12:08:58.015Z,0.61
2018-03-29T12:09:57.961Z,0.65
2018-03-29T12:10:58.002Z,0.71
2018-03-29T12:11:57.939Z,0.77
2018-03-29T12:12:57.969Z,0.72
2018-03-29T12:13:57.946Z,0.62
2018-03-29T12:14:57.957Z,0.38
2018-03-29T12:15:57.972Z,0
2018-03-29T12:16:57.983Z,0.53
2018-03-29T12:17:57.955Z,0.45
2018-03-29T12:18:58.007Z,0.57
2018-03-29T12:19:57.959Z,0.24
2018-03-29T12:20:57.958Z,0.28
2018-03-29T12:21:57.956Z,0.41
2018-03-29T12:22:57.952Z,0.37
2018-03-29T12:23:57.979Z,0.47
2018-03-29T12:24:57.957Z,1.02
2018-03-29T12:25:57.951Z,0.66
2018-03-29T12:26:58.005Z,0.52
2018-03-29T12:27:57.978Z,0.93
2018-03-29T12:28:57.974Z,0.62
2018-03-29T12:29:57.967Z,0.68
2018-03-29T12:30:57.992Z,0.89
2018-03-29T12:31:58.037Z,0.59
2018-03-29T12:32:57.965Z,0.81
2018-03-29T12:33:57.956Z,0.57
2018-03-29T12:34:58.043Z,0.8
2018-03-29T12:35:57.984Z,0.82
2018-03-29T12:36:57.959Z,1.03
2018-03-29T12:37:58.033Z,1.11
2018-03-29T12:38:57.961Z,1.23
2018-03-29T12:39:58.000Z,0.3
2018-03-29T12:40:57.975Z,0.46
2018-03-29T12:41:57.963Z,0.79
2018-03-29T12:42:57.964Z,0.66
2018-03-29T12:43:57.952Z,0.71
2018-03-29T12:44:58.549Z,0.47
2018-03-29T12:45:57.961Z,0.53
2018-03-29T12:46:58.206Z,0.63
2018-03-29T12:47:57.977Z,0.56
2018-03-29T12:48:57.985Z,0.89
2018-03-29T12:49:58.000Z,1.05
2018-03-29T12:50:57.985Z,0.99
2018-03-29T12:51:57.988Z,0.91
2018-03-29T12:52:57.962Z,1.11
2018-03-29T12:53:57.983Z,0.82
2018-03-29T12:54:57.990Z,0.81
2018-03-29T12:55:57.954Z,1.03
2018-03-29T12:56:57.980Z,0.87
2018-03-29T12:58:01.103Z,1.22
2018-03-29T12:58:58.666Z,1.14
2018-03-29T12:59:58.860Z,0.94
2018-03-29T13:00:57.996Z,1.1
2018-03-29T13:01:58.025Z,0.83
2018-03-29T13:02:57.979Z,0.66
2018-03-29T13:04:01.233Z,0.66
2018-03-29T13:04:58.001Z,0.94
2018-03-29T13:05:58.266Z,1.18
2018-03-29T13:06:57.984Z,1
2018-03-29T13:07:58.006Z,1.08
2018-03-29T13:08:57.967Z,1.35
2018-03-29T13:09:57.981Z,1.25
2018-03-29T13:10:58.018Z,0.93
2018-03-29T13:12:05.137Z,1.11
2018-03-29T13:12:57.974Z,1.28
2018-03-29T13:13:57.981Z,1.11
2018-03-29T13:14:57.982Z,0.77
2018-03-29T13:15:57.973Z,0.6
2018-03-29T13:16:58.894Z,0.51
2018-03-29T13:17:57.973Z,0.64
2018-03-29T13:18:57.980Z,0.61
2018-03-29T13:19:57.994Z,0.94
2018-03-29T13:20:57.984Z,1.06
2018-03-29T13:21:57.979Z,1.05